Scroll down
FLIGHT INFORMATION
American Airlines

AAL9731

At Arrival Gate

KMIA
 EGLL
DATE: 2020-12-29
GATE: C7
GATE DEPARTURE: 22:51
TAKEOFF: 23:04
DATE: 2020-12-30
GATE:  -
LANDING: 07:00
GATE ARRIVAL: 07:08
FLIGHT DATA
Crew: 
Speed: 
494 kts
Altitude: 
35,076 ft
Stage Length: 
3,838.4 nm
Block Time: 
8.2 hrs
Flight Time: 
7.9 hrs
Fuel Used: 
129,010 lb
Cleared Route: KMIA GOZZO VAPOR SHALW JANUS VALLY PERMT CANIT CARPX UKOKA OMALA ONGOT GOUGH KINER OVAPI MUNEY JEBBY RAFIN 4550N 4940N 5130N 5220N LIMRI XETBO LODLA ELTIG EVRIN NEKAP LAZTU ABDUK NUMPO OKESI HOFIK BEDEK NIGIT LLW03 OCK RW27R
TRACK DATA
50,000 ft 1,000 kts
AIRCRAFT INFO AND CUMULATIVE STATS
Aircraft Type: 
B77W
Registration: 
SELCAL: 
BCMP
MSN/LN: 
33541 / 1176
Operator: 
Total Flights: 
7
Total Block Time: 
33.8 hrs
Total Flight Time: 
32.2 hrs
Total Fuel Used: 
521,498 lb
DATALINK LOG | Newest first | Current as of: 2022-09-27 07:22:16
LABEL SEQUENCE CONTENT Dn/Up
QD102907:08 38.2▼ Dn
QC022107:00▼ Dn
2U3404EGSS 300250Z AUTO 29005KT 9999 NCD 01/M00 Q0999▲ Up
2U3404EINN 300300Z 22003KT 9999 FEW015 BKN024 BKN032 03/02 Q1004 NOSIG▲ Up
2U3404CYYT 300300Z 18006KT 15SM -RA FEW005 OVC055 03/03 A2965 RMK SF2SC6 PRESFR SLP048▲ Up
2U3404EGLL 300250Z AUTO 29005KT 9999 NCD M00/M01 Q1000 NOSIG▲ Up
2S3559EGLL CYYT EINN EGSS▼ Dn
QB053523:04▼ Dn
QA532422:51 167.4▼ Dn
A33313CLEARED TO EGLL VIA VALLY2 VALLY PERMT CANIT M202 UKOKA M202 MUNEY M202 JEBBY RAFIN 45N050W 49N040W 51N030W 52N020W LIMRI XETBO LODLA ELTIG EVRIN L607 NUMPO P2 BEDEK BEDE1H. SQUAWK 2340.▲ Up
Q03203[LINK ACK]▲ Up
Q03203[LINK TEST]▼ Dn


AIRCRAFT HISTORY
FLIGHT DATE FLIGHT NO. ORIGIN DESTINATION CLEARED ROUTE BLOCK TIME FLIGHT TIME FUEL USED PILOT
2022-02-08AAL2980ENVA LSZH ENVA VA805 UTUNA VEXOM AMOXA PIVAT XUKDI BAMIX NEDZA ELKOP NIROD LAGUM OSGAM KEMEG IRKAM EPILO BAVTA SURIR ASMUS ATTUS GIKOG BADOS ELSOB ESTAD IDEKO NIE ROBEG PIROT LARBU WRB RANAX EDEGA AMETU SOGMI BOMBI OMOGI SUNEG LAMGO SUL IBINI RILAX LAMAX AMIKI RW142.7 hrs2.4 hrs39,862 lbPete L.
2021-04-05AAL405LIRF ENVA LIRF RF792 RF706 RF711 RF712 SOSIV SOVAN IPDAB LOKTA LEBSO ESULI TEDGO HAREM LOHRE ARNIX FUL MASEK KEMAD ELNAT WERRA LUXUX NORTA DLE MADOR AGATI NOLGO SUBIG HAM ABGEB UMVUP EKERN TUGDU ALASA ALS GOTEX MAKUR SABAK XENTA REGMA LUNIP LILBA GIGNI VEVOD ROTGA VA714 ADEXA VA713 VA712 VA711 VA710 XILDA RW273.6 hrs3.3 hrs51,628 lbPete L.
2021-01-09AAL109EGLL LIRF EGLL D256E D224H D209I D196L MAXIT MID BOGNA BENBO HAWKE XAMAB VEULE INPAX RESMI ODEBU OGULO OKASI OKEKO OKEPI OKIRA MOU MADIV MOKIP MILPA KOGAS NITAM MOGBO OLKIS TINKU XIBIL RF407 RINAD TAQ CMP RW252.2 hrs2 hrs31,444 lbRandall Smith
2020-12-29AAL9731KMIA EGLL KMIA GOZZO VAPOR SHALW JANUS VALLY PERMT CANIT CARPX UKOKA OMALA ONGOT GOUGH KINER OVAPI MUNEY JEBBY RAFIN 4550N 4940N 5130N 5220N LIMRI XETBO LODLA ELTIG EVRIN NEKAP LAZTU ABDUK NUMPO OKESI HOFIK BEDEK NIGIT LLW03 OCK RW27R8.2 hrs7.9 hrs129,010 lbDan Downs
2020-12-23AAL369KLAX KMIA KLAX DOCKR WEILR SHAEF PEVEE HOLTZ DOTSS WIILD BLCKD CSTWY CNERY BLH SALOM KOFFA TFD TOTEC ITEMM SSO ALIBY ELP FIGMO FST KEMPL JCT SPURS PUFER CUZZZ IAH KAPAA PEKON LEV BLVNS BUNNZ BACCA CIGAR GAWKS BAGGS BAARY CYY DEEDS SSCOT RUBOE WALIP LECIT COPRA RW08R4.1 hrs3.9 hrs61,890 lbDan Downs
2020-12-21AAL2471KMIA KLAX KMIA OHOFO BORLE MEAGN WINCO CHRRI DOLIE SRQ JONBU CHRGE REMIS ROZZI NAITE REDFN FATSO HRV PEBBY AEX FOSIN TURNN NOBBL LURIC ADUKE FUZ TXO MIERA ABQ ZUN PYRIT DRK HIPPI GABBL CHPLN NWMAN MDLER MNROE HLYWD BRUEN AVATR DAAAY WADUP NEILE SEAVU RW25L5 hrs4.9 hrs76,076 lbDan Downs
2020-12-15AAL2348SCEL KMIA SCEL AMB DESIT DGO32 KIDUG VTN26 DONTI BUXIS AKPOK MOPNU SIKAB SULNA LIVOR ISPEL SORTA MOXES ISREN TRU VAKUD EVRED GYV DALUD UGUPI BUXOS TORIL TBG ARNAL EMASA GCM ATUVI UCL XOPLI IKBIX PEAKY DVALL KMIA8.1 hrs7.8 hrs131,588 lbMichael Roth